createdAt,value
2022-10-29T11:05:49.323Z,12.93
2022-10-29T11:08:20.819Z,15.88
2022-10-29T11:10:52.988Z,12.95
2022-10-29T11:13:24.195Z,17.00
2022-10-29T11:15:59.192Z,15.55
2022-10-29T11:18:34.802Z,14.63
2022-10-29T11:21:18.175Z,19.48
2022-10-29T11:23:52.933Z,16.33
2022-10-29T11:26:29.754Z,12.40
2022-10-29T11:29:03.650Z,20.75
2022-10-29T11:31:41.605Z,10.00
2022-10-29T11:34:17.197Z,12.68
2022-10-29T11:36:53.447Z,12.82
2022-10-29T11:39:27.255Z,11.38
2022-10-29T11:41:59.287Z,12.32
2022-10-29T11:44:28.102Z,14.27
2022-10-29T11:47:07.728Z,14.10
2022-10-29T11:49:54.135Z,23.10
2022-10-29T11:52:35.535Z,13.32
2022-10-29T11:55:16.261Z,18.52
2022-10-29T11:57:49.806Z,18.20
2022-10-29T12:00:20.341Z,13.40
2022-10-29T12:03:02.255Z,17.40
2022-10-29T12:05:36.569Z,14.13
2022-10-29T12:08:19.537Z,8.75
2022-10-29T12:10:55.625Z,16.63
2022-10-29T12:13:37.417Z,22.45
2022-10-29T12:16:16.392Z,11.45
2022-10-29T12:18:50.998Z,15.10
2022-10-29T12:21:28.912Z,13.90
2022-10-29T12:24:11.677Z,25.83
2022-10-29T12:26:45.499Z,22.85
2022-10-29T12:29:20.970Z,19.27
2022-10-29T12:31:55.912Z,20.30
2022-10-29T12:34:30.065Z,12.10
2022-10-29T12:37:09.414Z,19.23
2022-10-29T12:39:43.807Z,21.60
2022-10-29T12:42:17.799Z,14.60
2022-10-29T12:44:52.521Z,11.48
2022-10-29T12:47:25.428Z,16.58
2022-10-29T12:50:03.869Z,15.18
2022-10-29T12:52:39.886Z,18.98
2022-10-29T12:55:13.512Z,10.55
2022-10-29T12:57:41.556Z,15.73
2022-10-29T13:00:54.233Z,12.13
2022-10-29T13:03:55.500Z,18.55
2022-10-29T13:06:49.493Z,25.05
2022-10-29T13:09:19.849Z,19.23
2022-10-29T13:11:51.121Z,15.23
2022-10-29T13:14:25.814Z,13.30
2022-10-29T13:16:55.194Z,19.27
2022-10-29T13:19:39.598Z,13.18
2022-10-29T13:25:51.207Z,15.05
2022-10-29T13:28:54.624Z,20.65
2022-10-29T13:31:56.734Z,18.25
2022-10-29T13:34:58.795Z,25.17
2022-10-29T13:37:54.644Z,20.05
2022-10-29T13:40:59.349Z,23.25
2022-10-29T13:43:28.050Z,12.27
2022-10-29T13:46:30.437Z,17.67
2022-10-29T13:49:01.415Z,16.73
2022-10-29T13:51:36.178Z,23.90
2022-10-29T13:54:09.502Z,17.35
2022-10-29T13:56:45.209Z,13.90
2022-10-29T13:59:21.047Z,13.00
2022-10-29T14:02:06.297Z,23.83
2022-10-29T14:04:40.056Z,23.15
2022-10-29T14:07:15.613Z,15.60
2022-10-29T14:09:47.385Z,19.13
2022-10-29T14:12:21.761Z,26.50
2022-10-29T14:14:56.797Z,19.58
2022-10-29T14:17:25.880Z,18.67
2022-10-29T14:19:53.778Z,17.50
2022-10-29T14:22:33.323Z,22.95
2022-10-29T14:25:02.868Z,21.73
2022-10-29T14:27:31.074Z,17.50
2022-10-29T14:30:19.930Z,25.88
2022-10-29T14:32:48.985Z,20.40
2022-10-29T14:35:17.637Z,16.83
2022-10-29T14:37:49.643Z,22.45
2022-10-29T14:42:54.452Z,21.67
2022-10-29T14:45:25.617Z,15.35
2022-10-29T14:47:56.618Z,20.92
2022-10-29T14:50:26.754Z,22.85
2022-10-29T14:52:57.731Z,16.50
2022-10-29T14:55:29.047Z,18.60
2022-10-29T14:58:04.485Z,14.82
2022-10-29T15:00:35.787Z,14.32
2022-10-29T15:03:07.007Z,21.98
2022-10-29T15:05:37.157Z,21.88
2022-10-29T15:08:06.729Z,22.92
2022-10-29T15:10:46.238Z,17.88
2022-10-29T15:13:32.542Z,20.85
2022-10-29T15:16:03.230Z,16.50
2022-10-29T15:18:34.151Z,22.90
2022-10-29T15:21:02.839Z,14.73
2022-10-29T15:23:34.153Z,21.48
2022-10-29T15:26:04.994Z,21.10
2022-10-29T15:28:39.419Z,21.13
2022-10-29T15:31:07.530Z,20.08
2022-10-29T15:33:38.137Z,20.08
2022-10-29T15:36:06.911Z,15.07
2022-10-29T15:39:20.421Z,17.05
2022-10-29T15:41:50.861Z,13.60
2022-10-29T15:44:38.128Z,19.50
2022-10-29T15:47:27.836Z,14.52
2022-10-29T15:49:56.910Z,14.63
2022-10-29T15:52:29.499Z,18.13
2022-10-29T15:54:57.270Z,11.35
2022-10-29T15:57:25.354Z,17.45
2022-10-29T15:59:57.104Z,19.52
2022-10-29T16:02:26.409Z,19.85
2022-10-29T16:04:54.120Z,21.70
2022-10-29T16:07:23.218Z,16.42
2022-10-29T16:09:53.458Z,21.27
2022-10-29T16:12:21.304Z,27.30
2022-10-29T16:14:48.972Z,16.70
2022-10-29T16:17:17.939Z,23.08
2022-10-29T16:19:45.904Z,23.00
2022-10-29T16:22:16.014Z,21.50
2022-10-29T16:24:45.089Z,21.02
2022-10-29T16:27:18.427Z,24.95
2022-10-29T16:29:49.493Z,18.92
2022-10-29T16:32:18.435Z,16.48
2022-10-29T16:34:46.146Z,22.83
2022-10-29T16:37:15.545Z,18.58
2022-10-29T16:39:43.699Z,21.65
2022-10-29T16:42:30.356Z,21.38
2022-10-29T16:44:58.281Z,17.55
2022-10-29T16:47:25.969Z,16.42
2022-10-29T16:49:53.683Z,21.83
2022-10-29T16:52:24.120Z,15.25
2022-10-29T16:54:54.104Z,22.88
2022-10-29T16:57:23.829Z,16.90
2022-10-29T16:59:51.519Z,21.73
2022-10-29T17:02:19.213Z,17.70
2022-10-29T17:04:46.999Z,21.48
2022-10-29T17:07:14.713Z,18.90
2022-10-29T17:09:42.418Z,22.85
2022-10-29T17:12:10.150Z,25.23
2022-10-29T17:14:39.333Z,20.80
2022-10-29T17:17:07.083Z,16.50
2022-10-29T17:19:34.780Z,22.42
2022-10-29T17:22:04.266Z,18.13
2022-10-29T17:24:32.044Z,24.55
2022-10-29T17:27:00.233Z,19.35
2022-10-29T17:29:29.460Z,15.25
2022-10-29T17:34:31.859Z,22.00
2022-10-29T17:36:59.578Z,21.63
2022-10-29T17:39:27.441Z,29.52
2022-10-29T17:41:56.284Z,22.77
2022-10-29T17:44:26.267Z,15.88
2022-10-29T17:46:54.155Z,24.58
2022-10-29T17:49:23.346Z,25.73
2022-10-29T17:51:51.104Z,19.85
2022-10-29T17:54:19.915Z,25.23
2022-10-29T17:56:48.994Z,25.50
2022-10-29T17:59:16.798Z,23.00
2022-10-29T18:01:45.071Z,16.15
2022-10-29T18:04:13.152Z,23.52
2022-10-29T18:06:42.397Z,24.83
2022-10-29T18:09:10.285Z,21.73
2022-10-29T18:11:38.035Z,20.35
2022-10-29T18:14:07.702Z,25.67
2022-10-29T18:16:36.745Z,22.70
2022-10-29T18:19:04.455Z,33.53
2022-10-29T18:21:32.640Z,26.70
2022-10-29T18:24:01.696Z,17.63
2022-10-29T18:26:31.492Z,19.25
2022-10-29T18:29:00.843Z,18.13
2022-10-29T18:31:31.602Z,23.08
2022-10-29T18:34:00.713Z,24.73
2022-10-29T18:36:28.979Z,19.83
2022-10-29T18:38:58.607Z,24.58
2022-10-29T18:41:27.772Z,21.52
2022-10-29T18:43:55.555Z,18.40
2022-10-29T18:46:23.341Z,20.02
2022-10-29T18:48:51.285Z,12.90
2022-10-29T18:51:24.198Z,22.77
2022-10-29T18:53:52.133Z,20.65
2022-10-29T18:56:21.820Z,21.25
2022-10-29T18:58:51.357Z,19.75
2022-10-29T19:01:22.643Z,23.48
2022-10-29T19:03:51.932Z,19.30
2022-10-29T19:06:20.805Z,22.35
2022-10-29T19:08:49.030Z,22.35
2022-10-29T19:11:19.262Z,23.30
2022-10-29T19:13:52.649Z,23.90
2022-10-29T19:16:20.756Z,18.33
2022-10-29T19:18:48.595Z,21.45
2022-10-29T19:21:18.682Z,28.05
2022-10-29T19:23:46.763Z,26.27
2022-10-29T19:26:16.185Z,25.27
2022-10-29T19:28:44.872Z,24.10
2022-10-29T19:31:16.387Z,19.77
2022-10-29T19:33:47.804Z,22.08
2022-10-29T19:36:15.818Z,21.38
2022-10-29T19:38:43.965Z,37.83
2022-10-29T19:41:12.770Z,27.52
2022-10-29T19:43:40.948Z,33.10
2022-10-29T19:46:09.685Z,23.33
2022-10-29T19:48:39.245Z,27.67
2022-10-29T19:51:07.752Z,26.73
2022-10-29T19:53:35.697Z,29.05
2022-10-29T19:56:03.472Z,41.30
2022-10-29T19:58:33.301Z,20.02
2022-10-29T20:01:05.327Z,26.50
2022-10-29T20:06:02.378Z,32.45
2022-10-29T20:08:30.569Z,24.98
2022-10-29T20:10:59.211Z,17.95
2022-10-29T20:13:27.678Z,18.63
2022-10-29T20:15:55.985Z,22.60
2022-10-29T20:18:23.847Z,30.70
2022-10-29T20:20:55.406Z,21.38
2022-10-29T20:23:25.662Z,26.55
2022-10-29T20:25:53.903Z,24.17
2022-10-29T20:28:21.660Z,25.15
2022-10-29T20:30:49.420Z,21.00
2022-10-29T20:33:17.173Z,27.02
2022-10-29T20:35:45.188Z,22.17
2022-10-29T20:38:13.097Z,31.55
2022-10-29T20:40:42.261Z,23.38
2022-10-29T20:43:10.162Z,26.45
2022-10-29T20:45:37.978Z,23.20
2022-10-29T20:48:06.465Z,27.65
2022-10-29T20:50:34.318Z,32.63
2022-10-29T20:53:02.096Z,26.30
2022-10-29T20:55:29.900Z,27.67
2022-10-29T20:57:59.541Z,37.60
2022-10-29T21:00:27.649Z,27.40
2022-10-29T21:02:55.381Z,39.47
2022-10-29T21:05:23.219Z,39.97
2022-10-29T21:07:51.007Z,28.40
2022-10-29T21:10:18.739Z,37.78
2022-10-29T21:12:46.473Z,26.45
2022-10-29T21:15:15.802Z,29.77
2022-10-29T21:17:43.709Z,26.98
2022-10-29T21:20:11.740Z,29.08
2022-10-29T21:22:39.443Z,26.70
2022-10-29T21:25:07.676Z,22.85
2022-10-29T21:27:35.481Z,25.20
2022-10-29T21:30:03.228Z,23.00
2022-10-29T21:32:32.456Z,22.98
2022-10-29T21:35:00.179Z,26.60
2022-10-29T21:37:27.930Z,31.23
2022-10-29T21:39:55.672Z,28.70
2022-10-29T21:42:23.455Z,25.67
2022-10-29T21:44:51.196Z,29.60
2022-10-29T21:47:18.964Z,33.45
2022-10-29T21:49:51.884Z,22.42
2022-10-29T21:52:19.887Z,19.13
2022-10-29T21:54:47.734Z,37.60
2022-10-29T21:57:15.529Z,25.20
2022-10-29T21:59:43.274Z,31.02
2022-10-29T22:02:11.216Z,23.70
2022-10-29T22:04:39.183Z,30.58
2022-10-29T22:07:08.295Z,22.52
2022-10-29T22:09:36.043Z,30.48
2022-10-29T22:12:03.839Z,22.08
2022-10-29T22:14:31.522Z,30.63
2022-10-29T22:17:08.167Z,23.73
2022-10-29T22:19:35.897Z,26.90
2022-10-29T22:22:03.621Z,31.73
2022-10-29T22:24:32.749Z,37.95
2022-10-29T22:27:00.612Z,36.63
2022-10-29T22:29:28.608Z,31.40
2022-10-29T22:31:56.311Z,30.35
2022-10-29T22:34:24.059Z,28.02
2022-10-29T22:36:52.470Z,30.65
2022-10-29T22:39:20.186Z,43.78
2022-10-29T22:41:49.376Z,54.33
2022-10-29T22:44:17.141Z,37.70
2022-10-29T22:46:44.896Z,34.67
2022-10-29T22:49:12.860Z,29.83
2022-10-29T22:51:40.610Z,26.58
2022-10-29T22:54:08.530Z,34.97
2022-10-29T22:56:38.329Z,27.63
2022-10-29T22:59:08.197Z,33.80
2022-10-29T23:01:40.466Z,30.30
2022-10-29T23:04:12.114Z,37.50
2022-10-29T23:06:39.914Z,33.38
2022-10-29T23:09:07.600Z,45.20
2022-10-29T23:11:39.006Z,30.05
2022-10-29T23:14:08.198Z,37.60
2022-10-29T23:16:36.914Z,34.17
2022-10-29T23:19:06.527Z,24.48
2022-10-29T23:21:34.537Z,35.95
2022-10-29T23:24:02.318Z,35.20
2022-10-29T23:26:30.129Z,41.05
2022-10-29T23:28:58.011Z,41.30
2022-10-29T23:31:28.914Z,43.47
2022-10-29T23:33:58.111Z,32.00
2022-10-29T23:36:27.867Z,29.92
2022-10-29T23:38:56.358Z,29.75
2022-10-29T23:41:24.152Z,25.30
2022-10-29T23:43:51.943Z,29.83
2022-10-29T23:46:19.804Z,37.45
2022-10-29T23:48:48.949Z,32.28
2022-10-29T23:51:17.137Z,30.13
2022-10-29T23:53:44.990Z,36.83
2022-10-29T23:56:12.757Z,40.50
2022-10-29T23:58:40.463Z,47.97
